CNS4 weather

Alexandria Aerodrome
Alexandria, Ontario, Canada

Public forecast

Using degrees Celsius for public forecast. Weather courtesy of forecast.io.

METAR (pilot weather report)

Closest report is Massena International Richards Field, 25.5 nm (47.2 km) SSW. Retrieved 2019/03/21 02:53 UTC (15 minutes ago):

KMSS 210253Z AUTO 00000KT 10SM BKN110 M01/M03 A3015 RMK AO2 SLP214 T10061028 58005

TAF (pilot weather forecast)

Forecast is more than 12 hours old.

Closest forecast is Massena International Richards Field, 25.5 nm (47.2 km) SSW. Retrieved 2019/03/20 00:22 UTC (1 day ago):

TAF KMSS 202320Z 2100/2124 24006KT P6SM SCT120 FM210800 19005KT P6SM VCSH OVC050 FM212100 16005KT P6SM OVC035